createdAt,value
2017-12-08T00:02:23.143Z,75.62
2017-12-08T00:04:50.907Z,76.23
2017-12-08T00:07:18.508Z,76.21
2017-12-08T00:09:46.091Z,75.97
2017-12-08T00:12:14.366Z,76.80
2017-12-08T00:14:41.950Z,76.67
2017-12-08T00:17:09.491Z,76.18
2017-12-08T00:19:37.073Z,76.36
2017-12-08T00:22:18.931Z,76.63
2017-12-08T00:24:46.447Z,76.94
2017-12-08T00:27:14.012Z,76.56
2017-12-08T00:29:41.637Z,76.22
2017-12-08T00:32:09.183Z,76.35
2017-12-08T00:34:36.741Z,75.95
2017-12-08T00:37:04.293Z,75.89
2017-12-08T00:39:31.814Z,76.30
2017-12-08T00:41:59.369Z,76.33
2017-12-08T00:44:26.882Z,76.18
2017-12-08T00:46:54.396Z,76.42
2017-12-08T00:49:21.951Z,76.45
2017-12-08T00:51:49.463Z,76.55
2017-12-08T00:54:17.014Z,76.43
2017-12-08T00:56:44.602Z,76.21
2017-12-08T00:59:12.150Z,75.66
2017-12-08T01:01:39.656Z,75.58
2017-12-08T01:04:07.190Z,75.86
2017-12-08T01:06:34.746Z,76.02
2017-12-08T01:09:02.269Z,76.01
2017-12-08T01:11:29.784Z,76.10
2017-12-08T01:21:35.807Z,76.67
2017-12-08T01:24:03.304Z,76.93
2017-12-08T01:26:31.428Z,77.14
2017-12-08T01:28:58.948Z,77.43
2017-12-08T01:31:26.507Z,77.85
2017-12-08T01:33:54.092Z,77.87
2017-12-08T01:36:21.590Z,78.00
2017-12-08T01:38:49.094Z,78.12
2017-12-08T01:41:16.594Z,78.25
2017-12-08T01:43:44.084Z,77.84
2017-12-08T01:46:11.636Z,77.69
2017-12-08T01:48:39.241Z,77.67
2017-12-08T01:51:06.804Z,77.99
2017-12-08T01:53:34.329Z,77.92
2017-12-08T01:56:01.854Z,77.87
2017-12-08T01:58:29.416Z,77.54
2017-12-08T02:00:56.955Z,77.65
2017-12-08T02:03:24.556Z,77.36
2017-12-08T02:05:52.117Z,77.59
2017-12-08T02:08:19.708Z,77.74
2017-12-08T02:10:48.373Z,78.09
2017-12-08T02:13:15.929Z,77.94
2017-12-08T02:15:43.484Z,77.90
2017-12-08T02:18:11.211Z,78.04
2017-12-08T02:20:38.812Z,78.33
2017-12-08T02:23:06.339Z,78.35
2017-12-08T02:25:33.880Z,78.57
2017-12-08T02:28:01.418Z,78.68
2017-12-08T02:30:28.955Z,78.75
2017-12-08T02:32:56.997Z,78.94
2017-12-08T02:35:24.598Z,79.07
2017-12-08T02:37:52.556Z,79.05
2017-12-08T02:40:20.088Z,79.18
2017-12-08T02:42:47.591Z,79.14
2017-12-08T02:45:15.144Z,79.18
2017-12-08T02:47:42.734Z,78.94
2017-12-08T02:50:11.063Z,78.90
2017-12-08T02:52:38.615Z,78.78
2017-12-08T02:55:06.189Z,78.77
2017-12-08T02:57:33.748Z,78.91
2017-12-08T03:00:01.348Z,78.75
2017-12-08T03:02:29.140Z,78.63
2017-12-08T03:04:56.629Z,78.66
2017-12-08T03:07:24.121Z,78.52
2017-12-08T03:09:51.686Z,78.55
2017-12-08T03:12:19.203Z,78.20
2017-12-08T03:14:47.490Z,78.12
2017-12-08T03:17:15.052Z,78.19
2017-12-08T03:19:42.735Z,77.39
2017-12-08T03:22:10.284Z,77.45
2017-12-08T03:24:37.787Z,77.55
2017-12-08T03:27:05.281Z,77.36
2017-12-08T03:29:32.804Z,77.04
2017-12-08T03:32:00.306Z,77.06
2017-12-08T03:34:27.850Z,77.04
2017-12-08T03:36:55.379Z,77.06
2017-12-08T03:39:22.880Z,77.10
2017-12-08T03:41:50.504Z,77.15
2017-12-08T03:44:18.000Z,77.51
2017-12-08T03:46:45.548Z,78.20
2017-12-08T03:49:13.139Z,78.35
2017-12-08T03:51:40.719Z,78.57
2017-12-08T03:54:08.225Z,78.54
2017-12-08T03:56:36.044Z,78.58
2017-12-08T03:59:03.581Z,78.82
2017-12-08T04:01:31.993Z,78.69
2017-12-08T04:04:00.651Z,78.39
2017-12-08T04:06:28.211Z,78.29
2017-12-08T04:08:55.766Z,78.45
2017-12-08T04:11:23.288Z,78.35
2017-12-08T04:13:50.811Z,78.50
2017-12-08T04:16:18.343Z,78.42
2017-12-08T04:18:45.887Z,78.32
2017-12-08T04:21:13.451Z,78.50
2017-12-08T04:23:41.030Z,79.29
2017-12-08T04:26:08.580Z,80.15
2017-12-08T04:28:36.143Z,80.13
2017-12-08T04:31:03.651Z,79.96
2017-12-08T04:33:31.170Z,79.52
2017-12-08T04:35:58.732Z,78.94
2017-12-08T04:38:26.327Z,78.89
2017-12-08T04:40:53.894Z,79.33
2017-12-08T04:43:21.431Z,79.67
2017-12-08T04:45:49.008Z,80.29
2017-12-08T04:48:16.596Z,80.97
2017-12-08T04:50:44.159Z,81.77
2017-12-08T04:53:11.663Z,82.44
2017-12-08T04:55:39.213Z,82.90
2017-12-08T04:58:06.727Z,83.13
2017-12-08T05:00:34.247Z,83.29
2017-12-08T05:03:06.751Z,83.33
2017-12-08T05:05:34.290Z,83.05
2017-12-08T05:08:01.873Z,83.00
2017-12-08T05:10:29.394Z,83.00
2017-12-08T05:12:57.878Z,83.12
2017-12-08T05:15:25.440Z,82.95
2017-12-08T05:17:52.966Z,82.98
2017-12-08T05:20:20.472Z,82.77
2017-12-08T05:22:47.995Z,82.41
2017-12-08T05:25:15.542Z,81.89
2017-12-08T05:27:43.088Z,81.63
2017-12-08T05:30:10.682Z,80.93
2017-12-08T05:32:38.231Z,80.86
2017-12-08T05:35:05.738Z,80.25
2017-12-08T05:37:33.266Z,79.77
2017-12-08T05:40:00.796Z,79.60
2017-12-08T05:42:28.383Z,79.44
2017-12-08T05:44:55.904Z,79.49
2017-12-08T05:47:23.465Z,79.45
2017-12-08T05:49:50.979Z,79.81
2017-12-08T05:52:18.551Z,79.54
2017-12-08T05:54:46.083Z,79.66
2017-12-08T05:57:13.809Z,79.73
2017-12-08T05:59:41.361Z,79.65
2017-12-08T06:02:08.898Z,79.68
2017-12-08T06:04:36.455Z,79.65
2017-12-08T06:07:03.966Z,79.89
2017-12-08T06:09:31.471Z,79.88
2017-12-08T06:11:59.082Z,80.03
2017-12-08T06:14:26.625Z,80.20
2017-12-08T06:16:54.178Z,80.20
2017-12-08T06:19:21.721Z,80.24
2017-12-08T06:21:49.281Z,80.11
2017-12-08T06:24:16.823Z,80.07
2017-12-08T06:26:44.325Z,79.95
2017-12-08T06:29:11.868Z,79.83
2017-12-08T06:31:39.388Z,80.00
2017-12-08T06:34:06.924Z,79.61
2017-12-08T06:36:34.502Z,78.77
2017-12-08T06:39:02.055Z,78.62
2017-12-08T06:41:29.556Z,78.76
2017-12-08T06:43:57.104Z,78.81
2017-12-08T06:46:24.636Z,78.62
2017-12-08T06:48:52.153Z,78.49
2017-12-08T06:51:19.737Z,78.93
2017-12-08T06:53:47.257Z,79.07
2017-12-08T06:56:14.853Z,78.96
2017-12-08T06:58:42.378Z,78.91
2017-12-08T07:01:14.920Z,78.87
2017-12-08T07:03:42.457Z,78.76
2017-12-08T07:06:10.021Z,78.80
2017-12-08T07:08:37.569Z,78.61
2017-12-08T07:11:05.122Z,78.45
2017-12-08T07:13:36.686Z,78.70
2017-12-08T07:16:04.201Z,78.57
2017-12-08T07:18:32.719Z,78.58
2017-12-08T07:21:00.236Z,78.56
2017-12-08T07:23:28.848Z,78.39
2017-12-08T07:25:56.992Z,78.05
2017-12-08T07:28:25.023Z,77.82
2017-12-08T07:30:52.588Z,77.39
2017-12-08T07:33:20.698Z,76.66
2017-12-08T07:35:49.498Z,76.25
2017-12-08T07:38:17.041Z,76.03
2017-12-08T07:40:45.424Z,75.77
2017-12-08T07:43:13.007Z,75.39
2017-12-08T07:45:40.948Z,74.32
2017-12-08T07:48:16.627Z,74.38
2017-12-08T07:50:44.213Z,74.21
2017-12-08T07:53:12.081Z,73.89
2017-12-08T07:55:39.743Z,73.36
2017-12-08T07:58:07.304Z,73.24
2017-12-08T08:00:34.883Z,72.96
2017-12-08T08:03:03.690Z,71.82
2017-12-08T08:05:31.589Z,71.42
2017-12-08T08:07:59.132Z,71.23
2017-12-08T08:10:26.740Z,71.42
2017-12-08T08:12:54.539Z,71.37
2017-12-08T08:15:22.139Z,71.60
2017-12-08T08:17:49.668Z,70.88
2017-12-08T08:20:17.340Z,71.12
2017-12-08T08:22:44.956Z,71.55
2017-12-08T08:25:12.541Z,71.78
2017-12-08T08:27:40.884Z,72.25
2017-12-08T08:30:08.659Z,72.72
2017-12-08T08:32:36.271Z,73.15
2017-12-08T08:35:03.856Z,73.13
2017-12-08T08:37:31.689Z,73.29
2017-12-08T08:39:59.250Z,73.69
2017-12-08T08:42:26.794Z,73.86
2017-12-08T08:44:54.412Z,73.85
2017-12-08T08:47:21.994Z,73.97
2017-12-08T08:49:49.845Z,74.22
2017-12-08T08:52:36.842Z,74.66
2017-12-08T08:55:04.481Z,75.05
2017-12-08T08:57:32.096Z,75.07
2017-12-08T08:59:59.682Z,75.11
2017-12-08T09:02:27.234Z,75.25
2017-12-08T09:04:55.678Z,75.25
2017-12-08T09:07:28.272Z,75.11
2017-12-08T09:09:56.700Z,75.04
2017-12-08T09:12:24.305Z,74.30
2017-12-08T09:14:51.865Z,73.46
2017-12-08T09:17:19.403Z,72.70
2017-12-08T09:19:46.990Z,71.88
2017-12-08T09:25:26.286Z,70.19
2017-12-08T09:27:53.868Z,69.99
2017-12-08T09:30:21.689Z,69.16
2017-12-08T09:32:49.270Z,68.96
2017-12-08T09:35:16.847Z,68.82
2017-12-08T09:37:44.380Z,68.40
2017-12-08T09:40:11.930Z,68.81
2017-12-08T09:42:39.540Z,69.37
2017-12-08T09:45:07.153Z,69.92
2017-12-08T09:47:35.017Z,70.13
2017-12-08T09:50:02.626Z,69.73
2017-12-08T09:52:30.182Z,70.28
2017-12-08T09:54:57.797Z,70.93
2017-12-08T09:57:25.348Z,71.06
2017-12-08T09:59:52.991Z,71.56
2017-12-08T10:02:20.637Z,71.16
2017-12-08T10:04:48.291Z,70.66
2017-12-08T10:07:15.895Z,70.84
2017-12-08T10:09:43.498Z,70.62
2017-12-08T10:12:11.104Z,70.32
2017-12-08T10:14:41.383Z,69.98
2017-12-08T10:17:10.862Z,69.68
2017-12-08T10:19:38.537Z,69.62
2017-12-08T10:22:07.217Z,69.69
2017-12-08T10:24:36.377Z,69.20
2017-12-08T10:27:04.019Z,68.82
2017-12-08T10:29:31.604Z,68.38
2017-12-08T10:31:59.176Z,67.49
2017-12-08T10:34:26.759Z,66.64
2017-12-08T10:36:54.353Z,67.01
2017-12-08T10:39:21.968Z,67.37
2017-12-08T10:41:51.573Z,67.25
2017-12-08T10:44:19.875Z,66.46
2017-12-08T10:46:50.420Z,66.56
2017-12-08T10:49:18.067Z,66.91
2017-12-08T10:51:46.440Z,67.29
2017-12-08T10:54:13.989Z,66.92
2017-12-08T10:56:42.269Z,65.34
2017-12-08T10:59:10.266Z,65.42
2017-12-08T11:01:37.794Z,65.87
2017-12-08T11:04:05.374Z,65.55
2017-12-08T11:06:35.423Z,65.17
2017-12-08T11:09:03.589Z,64.70
2017-12-08T11:11:31.175Z,64.53
2017-12-08T11:13:59.012Z,64.74
2017-12-08T11:16:26.831Z,64.67
2017-12-08T11:18:54.555Z,63.11
2017-12-08T11:21:23.094Z,63.53
2017-12-08T11:23:53.896Z,63.48
2017-12-08T11:26:21.734Z,63.80
2017-12-08T11:28:50.951Z,64.15
2017-12-08T11:31:19.593Z,64.51
2017-12-08T11:33:48.479Z,64.60
2017-12-08T11:36:18.004Z,64.46
2017-12-08T11:38:45.664Z,63.83
2017-12-08T11:41:14.733Z,62.44
2017-12-08T11:43:43.686Z,61.84
2017-12-08T11:46:11.269Z,61.24
2017-12-08T11:48:38.897Z,60.89
2017-12-08T11:51:06.475Z,61.26
2017-12-08T11:53:34.042Z,60.70
2017-12-08T11:56:01.608Z,59.15
2017-12-08T11:58:29.215Z,58.11
2017-12-08T12:00:56.822Z,57.09
2017-12-08T12:03:24.433Z,56.91
2017-12-08T12:05:52.069Z,57.94
2017-12-08T12:08:19.726Z,58.90
2017-12-08T12:10:47.389Z,59.30
2017-12-08T12:13:15.155Z,58.49
2017-12-08T12:15:42.736Z,58.25
2017-12-08T12:18:11.127Z,58.35
2017-12-08T12:20:38.712Z,58.64
2017-12-08T12:23:08.757Z,58.76
2017-12-08T12:25:37.455Z,58.20
2017-12-08T12:28:05.250Z,58.13
2017-12-08T12:30:32.867Z,56.91
2017-12-08T12:33:01.134Z,56.68
2017-12-08T12:35:28.722Z,55.88
2017-12-08T12:37:56.344Z,54.50
2017-12-08T12:40:24.080Z,52.58
2017-12-08T12:43:10.999Z,52.56
2017-12-08T12:45:38.896Z,52.47
2017-12-08T12:48:06.475Z,52.08
2017-12-08T12:50:34.091Z,51.91
2017-12-08T12:53:01.661Z,51.66
2017-12-08T12:55:30.170Z,51.98
2017-12-08T12:57:59.220Z,52.04
2017-12-08T13:00:26.849Z,51.50
2017-12-08T13:02:54.526Z,51.37
2017-12-08T13:05:22.129Z,50.83
2017-12-08T13:07:49.701Z,51.32
2017-12-08T13:10:17.273Z,51.34
2017-12-08T13:12:44.938Z,52.29
2017-12-08T13:15:12.593Z,52.32
2017-12-08T13:17:42.083Z,52.59
2017-12-08T13:20:09.719Z,52.80
2017-12-08T13:22:41.816Z,53.38
2017-12-08T13:25:09.313Z,53.38
2017-12-08T13:27:36.794Z,53.91
2017-12-08T13:30:04.326Z,54.49
2017-12-08T13:32:31.902Z,55.06
2017-12-08T13:35:00.176Z,55.19
2017-12-08T13:37:27.740Z,54.51
2017-12-08T13:39:55.306Z,55.07
2017-12-08T13:42:24.668Z,54.63
2017-12-08T13:44:52.956Z,54.98
2017-12-08T13:47:20.897Z,54.48
2017-12-08T13:49:49.147Z,54.05
2017-12-08T13:52:17.024Z,54.25
2017-12-08T13:54:57.088Z,54.34
2017-12-08T13:57:24.834Z,53.93
2017-12-08T13:59:52.521Z,54.95
2017-12-08T14:05:12.630Z,70.51
2017-12-08T14:07:40.111Z,73.55
2017-12-08T14:10:07.690Z,75.05
2017-12-08T14:12:35.227Z,73.44
2017-12-08T14:15:03.470Z,70.37
2017-12-08T14:17:32.202Z,69.94
2017-12-08T14:20:00.765Z,68.40
2017-12-08T14:22:28.466Z,68.22
2017-12-08T14:24:56.304Z,68.38
2017-12-08T14:27:23.967Z,68.36
2017-12-08T14:29:51.425Z,68.73
2017-12-08T14:32:19.009Z,69.25
2017-12-08T14:34:46.563Z,68.92
2017-12-08T14:37:14.101Z,70.83
2017-12-08T14:39:41.616Z,69.56
2017-12-08T14:42:11.381Z,71.14
2017-12-08T14:44:42.218Z,70.58
2017-12-08T14:47:09.758Z,70.54
2017-12-08T14:49:41.852Z,71.65
2017-12-08T14:52:12.676Z,72.74
2017-12-08T14:54:40.360Z,73.31
2017-12-08T14:57:07.894Z,73.90
2017-12-08T14:59:35.338Z,74.04
2017-12-08T15:02:04.398Z,74.32
2017-12-08T15:04:33.007Z,74.30
2017-12-08T15:07:00.476Z,74.31
2017-12-08T15:09:28.051Z,74.21
2017-12-08T15:11:56.690Z,73.84
2017-12-08T15:14:24.248Z,73.70
2017-12-08T15:16:51.705Z,73.05
2017-12-08T15:19:19.154Z,73.19
2017-12-08T15:21:46.758Z,72.70
2017-12-08T15:24:14.468Z,73.38
2017-12-08T15:26:42.017Z,73.21
2017-12-08T15:29:09.495Z,73.53
2017-12-08T15:31:36.936Z,73.14
2017-12-08T15:34:04.378Z,73.00
2017-12-08T15:36:31.836Z,73.36
2017-12-08T15:38:59.442Z,73.65
2017-12-08T15:41:26.967Z,73.09
2017-12-08T15:43:54.427Z,72.93
2017-12-08T15:46:21.986Z,73.04
2017-12-08T15:48:49.535Z,72.39
2017-12-08T15:51:17.079Z,71.93
2017-12-08T15:53:44.663Z,71.47
2017-12-08T15:56:12.630Z,71.32
2017-12-08T15:58:40.115Z,71.53
2017-12-08T16:01:07.663Z,71.60
2017-12-08T16:03:35.181Z,72.06
2017-12-08T16:06:02.673Z,71.08
2017-12-08T16:08:30.188Z,70.83
2017-12-08T16:10:57.645Z,70.58
2017-12-08T16:13:25.170Z,70.65
2017-12-08T16:15:52.666Z,69.83
2017-12-08T16:18:20.202Z,69.83
2017-12-08T16:20:47.633Z,70.10
2017-12-08T16:23:15.109Z,69.40
2017-12-08T16:25:42.610Z,69.35
2017-12-08T16:28:10.044Z,69.24
2017-12-08T16:30:37.660Z,69.05
2017-12-08T16:33:05.137Z,68.82
2017-12-08T16:35:32.612Z,68.94
2017-12-08T16:38:00.088Z,68.13
2017-12-08T16:40:27.646Z,68.77
2017-12-08T16:42:55.185Z,68.77
2017-12-08T16:45:22.704Z,69.48
2017-12-08T16:47:50.207Z,68.02
2017-12-08T16:50:17.677Z,67.54
2017-12-08T16:52:45.964Z,68.29
2017-12-08T16:55:13.454Z,68.03
2017-12-08T16:57:40.932Z,67.43
2017-12-08T17:00:08.400Z,67.71
2017-12-08T17:02:35.912Z,66.91
2017-12-08T17:05:03.378Z,66.36
2017-12-08T17:07:30.838Z,66.70
2017-12-08T17:09:58.364Z,66.29
2017-12-08T17:12:25.881Z,65.75
2017-12-08T17:14:53.331Z,65.01
2017-12-08T17:17:20.773Z,65.20
2017-12-08T17:19:48.261Z,64.42
2017-12-08T17:22:15.717Z,64.97
2017-12-08T17:24:43.278Z,64.20
2017-12-08T17:27:10.813Z,64.90
2017-12-08T17:29:38.309Z,64.93
2017-12-08T17:32:05.894Z,64.74
2017-12-08T17:34:33.403Z,65.55
2017-12-08T17:37:00.844Z,67.97
2017-12-08T17:39:28.330Z,69.66
2017-12-08T17:41:55.807Z,71.36
2017-12-08T17:44:23.306Z,72.56
2017-12-08T17:46:50.817Z,73.21
2017-12-08T17:49:18.454Z,73.65
2017-12-08T17:51:45.932Z,74.45
2017-12-08T17:54:13.420Z,75.08
2017-12-08T17:56:40.986Z,75.57
2017-12-08T17:59:10.842Z,76.04
2017-12-08T18:01:38.333Z,76.28
2017-12-08T18:04:05.820Z,76.64
2017-12-08T18:06:33.260Z,76.94
2017-12-08T18:09:00.776Z,77.47
2017-12-08T18:11:28.352Z,77.51
2017-12-08T18:13:56.104Z,77.57
2017-12-08T18:16:23.652Z,77.77
2017-12-08T18:18:51.163Z,77.87
2017-12-08T18:21:18.646Z,77.66
2017-12-08T18:23:46.137Z,77.42
2017-12-08T18:26:14.244Z,77.51
2017-12-08T18:28:41.723Z,77.60
2017-12-08T18:31:09.225Z,77.20
2017-12-08T18:33:36.711Z,76.81
2017-12-08T18:36:04.230Z,76.63
2017-12-08T18:38:31.677Z,76.00
2017-12-08T18:40:59.216Z,75.63
2017-12-08T18:43:26.741Z,75.67
2017-12-08T18:45:54.237Z,75.94
2017-12-08T18:48:21.936Z,75.60
2017-12-08T18:50:49.401Z,75.87
2017-12-08T18:53:16.872Z,75.78
2017-12-08T18:55:44.401Z,75.94
2017-12-08T18:58:11.868Z,75.96
2017-12-08T19:00:39.635Z,76.12
2017-12-08T19:03:07.093Z,76.37
2017-12-08T19:05:34.580Z,76.67
2017-12-08T19:08:02.092Z,76.63
2017-12-08T19:10:29.753Z,76.97
2017-12-08T19:13:06.937Z,77.05
2017-12-08T19:15:34.438Z,77.37
2017-12-08T19:18:01.995Z,77.46
2017-12-08T19:20:29.522Z,77.34
2017-12-08T19:22:57.123Z,77.61
2017-12-08T19:25:24.646Z,77.36
2017-12-08T19:27:52.173Z,77.23
2017-12-08T19:30:19.633Z,77.42
2017-12-08T19:32:48.159Z,77.41
2017-12-08T19:35:15.669Z,77.63
2017-12-08T19:37:43.213Z,77.71
2017-12-08T19:40:10.757Z,77.55
2017-12-08T19:42:43.460Z,77.66
2017-12-08T19:45:10.993Z,77.59
2017-12-08T19:47:38.504Z,77.82
2017-12-08T19:50:06.047Z,77.44
2017-12-08T19:52:33.535Z,77.69
2017-12-08T19:55:01.052Z,77.75
2017-12-08T19:57:28.638Z,77.86
2017-12-08T19:59:56.247Z,77.83
2017-12-08T20:02:47.434Z,77.72
2017-12-08T20:05:14.924Z,77.75
2017-12-08T20:07:42.389Z,77.14
2017-12-08T20:10:09.873Z,76.61
2017-12-08T20:12:37.403Z,76.20
2017-12-08T20:15:05.520Z,76.39
2017-12-08T20:17:32.979Z,76.30
2017-12-08T20:20:00.611Z,76.18
2017-12-08T20:22:28.245Z,75.85
2017-12-08T20:24:55.819Z,75.52
2017-12-08T20:27:23.379Z,75.83
2017-12-08T20:29:50.948Z,75.33
2017-12-08T20:32:18.482Z,75.07
2017-12-08T20:34:45.980Z,74.96
2017-12-08T20:37:13.750Z,74.82
2017-12-08T20:39:41.182Z,75.01
2017-12-08T20:42:08.710Z,74.79
2017-12-08T20:44:36.421Z,74.99
2017-12-08T20:47:03.889Z,74.81
2017-12-08T20:49:31.393Z,74.53
2017-12-08T20:51:58.946Z,74.70
2017-12-08T20:54:26.397Z,74.48
2017-12-08T20:56:53.858Z,74.46
2017-12-08T20:59:21.639Z,74.46
2017-12-08T21:01:49.140Z,74.68
2017-12-08T21:04:16.827Z,74.28
2017-12-08T21:06:44.351Z,73.82
2017-12-08T21:09:11.772Z,73.80
2017-12-08T21:11:40.009Z,73.74
2017-12-08T21:14:07.551Z,72.67
2017-12-08T21:16:35.572Z,72.74
2017-12-08T21:19:03.050Z,72.43
2017-12-08T21:21:30.501Z,72.93
2017-12-08T21:23:57.971Z,72.56
2017-12-08T21:26:25.454Z,72.43
2017-12-08T21:28:52.933Z,72.41
2017-12-08T21:31:20.393Z,72.77
2017-12-08T21:33:48.574Z,72.54
2017-12-08T21:36:16.048Z,71.90
2017-12-08T21:38:43.599Z,72.09
2017-12-08T21:41:11.048Z,72.12
2017-12-08T21:43:38.497Z,72.37
2017-12-08T21:46:05.956Z,72.46
2017-12-08T21:48:33.478Z,72.34
2017-12-08T21:51:00.991Z,72.37
2017-12-08T21:53:28.430Z,72.67
2017-12-08T21:55:55.945Z,73.01
2017-12-08T21:58:23.456Z,73.35
2017-12-08T22:00:51.491Z,73.51
2017-12-08T22:03:18.972Z,73.78
2017-12-08T22:05:46.500Z,73.94
2017-12-08T22:08:14.052Z,74.34
2017-12-08T22:10:41.501Z,74.54
2017-12-08T22:13:09.070Z,74.55
2017-12-08T22:15:36.528Z,74.72
2017-12-08T22:18:04.133Z,74.99
2017-12-08T22:20:31.679Z,75.05
2017-12-08T22:26:06.196Z,75.02
2017-12-08T22:28:33.652Z,75.15
2017-12-08T22:31:01.191Z,75.34
2017-12-08T22:33:28.702Z,75.03
2017-12-08T22:35:56.235Z,75.11
2017-12-08T22:38:23.765Z,74.93
2017-12-08T22:40:51.251Z,75.18
2017-12-08T22:43:18.771Z,75.21
2017-12-08T22:45:46.422Z,75.25
2017-12-08T22:48:13.888Z,75.48
2017-12-08T22:50:42.261Z,75.33
2017-12-08T22:53:09.765Z,75.54
2017-12-08T22:55:37.304Z,75.40
2017-12-08T22:58:04.802Z,75.46
2017-12-08T23:00:33.303Z,75.29
2017-12-08T23:03:00.978Z,75.49
2017-12-08T23:05:28.579Z,75.18
2017-12-08T23:07:56.042Z,75.22
2017-12-08T23:10:23.522Z,75.28
2017-12-08T23:12:51.054Z,75.26
2017-12-08T23:15:18.478Z,75.42
2017-12-08T23:17:46.007Z,75.48
2017-12-08T23:20:13.733Z,75.57
2017-12-08T23:22:41.230Z,75.58
2017-12-08T23:25:08.683Z,74.86
2017-12-08T23:27:36.165Z,74.76
2017-12-08T23:30:03.756Z,74.39
2017-12-08T23:32:31.261Z,74.10
2017-12-08T23:34:58.753Z,73.96
2017-12-08T23:37:26.248Z,73.92
2017-12-08T23:39:53.756Z,73.60
2017-12-08T23:42:21.246Z,73.19
2017-12-08T23:44:48.729Z,72.78
2017-12-08T23:47:16.240Z,72.79
2017-12-08T23:49:43.717Z,72.61
2017-12-08T23:52:11.151Z,72.75
2017-12-08T23:54:38.645Z,72.71
2017-12-08T23:57:06.155Z,73.00
2017-12-08T23:59:33.641Z,72.96
